createdAt,value
2022-11-20T00:00:01.343Z,0.3
2022-11-20T00:10:00.997Z,0.4
2022-11-20T00:20:00.999Z,0.1
2022-11-20T00:30:00.120Z,0.4
2022-11-20T00:40:01.054Z,0.3
2022-11-20T00:50:01.015Z,0.5
2022-11-20T01:00:01.067Z,0.4
2022-11-20T01:10:00.168Z,0.5
2022-11-20T01:20:00.993Z,0.6
2022-11-20T01:30:01.347Z,0.4
2022-11-20T01:40:01.237Z,0.5
2022-11-20T01:50:01.272Z,0.6
2022-11-20T02:00:01.156Z,0.4
2022-11-20T02:10:01.170Z,0.4
2022-11-20T02:20:01.141Z,0.3
2022-11-20T02:30:00.236Z,0.0
2022-11-20T02:40:01.215Z,0.1
2022-11-20T02:50:00.144Z,0.1
2022-11-20T03:00:01.271Z,0.2
2022-11-20T03:10:01.222Z,-0.2
2022-11-20T03:20:01.328Z,-0.2
2022-11-20T03:30:01.251Z,-0.1
2022-11-20T03:40:01.165Z,0.0
2022-11-20T03:50:01.024Z,0.3
2022-11-20T04:00:01.273Z,0.2
2022-11-20T04:10:01.249Z,-0.1
2022-11-20T04:20:01.037Z,-0.3
2022-11-20T04:30:01.330Z,-0.3
2022-11-20T04:40:00.787Z,0.0
2022-11-20T04:50:01.185Z,-0.1
2022-11-20T05:00:01.268Z,-0.2
2022-11-20T05:10:01.029Z,-0.1
2022-11-20T05:20:01.274Z,-0.1
2022-11-20T05:30:01.324Z,-0.1
2022-11-20T05:40:01.136Z,-0.0
2022-11-20T05:50:01.528Z,-0.0
2022-11-20T06:00:01.455Z,0.2
2022-11-20T06:10:03.207Z,0.1
2022-11-20T06:20:01.774Z,0.1
2022-11-20T06:30:01.532Z,0.2
2022-11-20T06:40:00.123Z,0.2
2022-11-20T06:50:01.020Z,0.2
2022-11-20T07:00:01.073Z,0.4
2022-11-20T07:10:01.049Z,0.3
2022-11-20T07:20:02.785Z,0.2
2022-11-20T07:30:01.715Z,0.2
2022-11-20T07:40:01.430Z,-0.2
2022-11-20T07:50:01.522Z,-0.3
2022-11-20T08:00:04.025Z,-0.1
2022-11-20T08:10:01.279Z,-0.1
2022-11-20T08:20:01.522Z,0.2
2022-11-20T08:30:01.566Z,0.3
2022-11-20T08:40:02.155Z,0.4
2022-11-20T08:50:01.313Z,0.3
2022-11-20T09:00:06.300Z,0.3
2022-11-20T09:10:22.495Z,0.6
2022-11-20T09:20:00.139Z,0.6
2022-11-20T09:30:01.235Z,0.5
2022-11-20T09:40:01.300Z,0.4
2022-11-20T09:50:00.141Z,0.6
2022-11-20T10:00:01.469Z,0.8
2022-11-20T10:10:01.272Z,0.8
2022-11-20T10:20:03.016Z,0.7
2022-11-20T10:30:00.153Z,0.5
2022-11-20T10:40:00.993Z,0.8
2022-11-20T10:50:01.572Z,1.1
2022-11-20T11:00:00.126Z,1.4
2022-11-20T11:10:01.224Z,1.7
2022-11-20T11:20:01.295Z,2.0
2022-11-20T11:30:01.051Z,2.1
2022-11-20T11:40:23.245Z,2.0
2022-11-20T11:50:00.991Z,1.5
2022-11-20T12:00:01.056Z,1.5
2022-11-20T12:10:01.507Z,1.5
2022-11-20T12:20:00.973Z,2.1
2022-11-20T12:30:00.133Z,1.9
2022-11-20T12:40:01.753Z,1.7
2022-11-20T12:50:01.272Z,1.8
2022-11-20T13:00:01.276Z,1.6
2022-11-20T13:10:00.136Z,1.5
2022-11-20T13:20:00.161Z,1.9
2022-11-20T13:30:01.496Z,1.8
2022-11-20T13:40:01.569Z,2.1
2022-11-20T13:50:01.046Z,2.0
2022-11-20T14:00:00.251Z,1.7
2022-11-20T14:10:00.144Z,1.5
2022-11-20T14:20:03.368Z,1.7
2022-11-20T14:30:01.283Z,1.5
2022-11-20T14:40:02.883Z,1.6
2022-11-20T14:50:04.603Z,1.6
2022-11-20T15:00:01.595Z,1.4
2022-11-20T15:10:01.293Z,1.3
2022-11-20T15:20:01.558Z,1.1
2022-11-20T15:30:03.236Z,1.1
2022-11-20T15:40:00.983Z,1.1
2022-11-20T15:50:02.808Z,1.1
2022-11-20T16:00:02.373Z,1.1
2022-11-20T16:10:00.879Z,1.1
2022-11-20T16:20:01.013Z,1.1
2022-11-20T16:30:01.017Z,1.1
2022-11-20T16:40:01.396Z,1.1
2022-11-20T16:50:01.568Z,1.1
2022-11-20T17:00:02.392Z,1.1
2022-11-20T17:10:01.253Z,1.1
2022-11-20T17:20:01.085Z,1.1
2022-11-20T17:30:01.488Z,1.1
2022-11-20T17:40:01.864Z,1.1
2022-11-20T17:50:01.306Z,1.1
2022-11-20T18:00:01.015Z,3.0
2022-11-20T18:10:00.150Z,0.1
2022-11-20T18:20:27.002Z,-0.6
2022-11-20T18:30:01.062Z,-0.7
2022-11-20T18:40:00.150Z,-0.8
2022-11-20T18:50:01.126Z,-1.0
2022-11-20T19:00:06.705Z,-1.0
2022-11-20T19:10:04.107Z,-1.1
2022-11-20T19:20:01.137Z,-1.1
2022-11-20T19:30:01.171Z,-1.0
2022-11-20T19:40:01.281Z,-1.1
2022-11-20T19:50:01.698Z,-1.1
2022-11-20T20:00:01.870Z,-1.0
2022-11-20T20:10:01.067Z,-0.9
2022-11-20T20:20:01.126Z,-1.0
2022-11-20T20:30:01.095Z,-1.3
2022-11-20T20:40:01.240Z,-1.4
2022-11-20T20:50:01.893Z,-1.5
2022-11-20T21:00:01.307Z,-1.5
2022-11-20T21:10:01.460Z,-1.6
2022-11-20T21:20:01.086Z,-1.6
2022-11-20T21:30:01.261Z,-1.7
2022-11-20T21:40:00.995Z,-1.8
2022-11-20T21:50:01.495Z,-2.0
2022-11-20T22:00:01.298Z,-2.0
2022-11-20T22:10:02.146Z,-2.1
2022-11-20T22:20:00.141Z,-2.1
2022-11-20T22:30:00.169Z,-2.0
2022-11-20T22:40:01.043Z,-2.2
2022-11-20T22:50:03.943Z,-2.0
2022-11-20T23:00:00.975Z,-2.0
2022-11-20T23:10:01.546Z,-2.1
2022-11-20T23:20:01.007Z,-1.9
2022-11-20T23:30:01.028Z,-1.7
2022-11-20T23:40:02.011Z,-1.4
2022-11-20T23:50:02.967Z,-1.6
